Time;durP1;ratioP1;P1;durP2;ratioP2;P2;SDS_P1;SDS_P2;PMS_P1;PMS_P2;Temp;Humidity;BMP_temperature;BMP_pressure;BME280_temperature;BME280_humidity;BME280_pressure;Samples;Min_cycle;Max_cycle;Signal;HPM_P1;HPM_P2
2023/01/13 00:00:14;;;;;;;1.33;0.20;;;10.00;99.90;;;;;;4992813;28;20213;-90
2023/01/13 00:02:40;;;;;;;0.30;0.10;;;10.00;99.90;;;;;;4992061;28;20229;-90
2023/01/13 00:05:08;;;;;;;0.20;0.20;;;10.10;99.90;;;;;;4993076;28;20235;-91
2023/01/13 00:07:35;;;;;;;0.20;0.20;;;10.00;99.90;;;;;;4993359;28;20232;-90
2023/01/13 00:10:02;;;;;;;0.20;0.20;;;9.90;99.90;;;;;;4992872;28;20300;-91
2023/01/13 00:12:30;;;;;;;0.30;0.30;;;10.00;99.90;;;;;;4992635;28;20208;-91
2023/01/13 00:14:57;;;;;;;0.30;0.20;;;10.00;99.90;;;;;;4992960;28;20212;-91
2023/01/13 00:17:24;;;;;;;0.17;0.10;;;10.00;99.90;;;;;;4992901;28;20217;-90
2023/01/13 00:19:51;;;;;;;0.20;0.20;;;10.10;99.90;;;;;;4993140;28;20575;-91
2023/01/13 00:22:17;;;;;;;0.20;0.20;;;10.10;99.90;;;;;;4993007;28;20659;-90
2023/01/13 00:28:08;;;;;;;0.60;0.30;;;10.10;99.90;;;;;;4992857;28;20220;-89
2023/01/13 00:30:37;;;;;;;0.30;0.27;;;10.20;99.90;;;;;;4992266;28;20236;-91
2023/01/13 00:33:04;;;;;;;0.20;0.20;;;10.20;99.90;;;;;;4993070;28;20205;-91
2023/01/13 00:35:30;;;;;;;1.10;0.20;;;10.20;99.90;;;;;;4992681;28;20201;-91
2023/01/13 00:37:57;;;;;;;0.30;0.30;;;10.20;99.90;;;;;;4993048;28;20240;-90
2023/01/13 00:40:24;;;;;;;0.30;0.30;;;10.30;99.90;;;;;;4992286;28;20205;-90
2023/01/13 00:45:51;;;;;;;2.43;0.60;;;10.20;99.90;;;;;;4971292;28;20205;-91
2023/01/13 00:48:18;;;;;;;3.83;0.53;;;10.30;99.90;;;;;;4969912;28;20264;-91
2023/01/13 00:50:46;;;;;;;0.27;0.27;;;10.20;99.90;;;;;;4980751;28;20193;-90
2023/01/13 00:53:13;;;;;;;1.20;0.30;;;10.30;99.90;;;;;;4992229;28;20650;-91
2023/01/13 00:55:40;;;;;;;0.33;0.30;;;10.20;99.90;;;;;;4991811;28;20213;-90
2023/01/13 00:58:07;;;;;;;0.87;0.20;;;10.20;99.90;;;;;;4992418;28;20239;-90
2023/01/13 01:00:34;;;;;;;0.33;0.33;;;10.40;99.90;;;;;;4992178;28;20288;-90
2023/01/13 01:03:02;;;;;;;0.47;0.37;;;10.30;99.90;;;;;;4991914;28;20316;-91
2023/01/13 01:05:29;;;;;;;0.70;0.50;;;10.30;99.90;;;;;;4996989;28;20197;-90
2023/01/13 01:07:55;;;;;;;0.30;0.30;;;10.20;99.90;;;;;;4983121;28;20576;-91
2023/01/13 01:10:22;;;;;;;0.30;0.30;;;10.10;99.90;;;;;;4994744;28;20197;-91
2023/01/13 01:12:49;;;;;;;0.67;0.20;;;10.10;99.90;;;;;;4997746;28;20556;-91
2023/01/13 01:15:16;;;;;;;0.40;0.40;;;10.00;99.90;;;;;;4995132;28;20227;-91
2023/01/13 01:17:43;;;;;;;1.60;0.40;;;10.00;99.90;;;;;;4995514;28;20209;-91
2023/01/13 01:20:12;;;;;;;0.40;0.40;;;10.00;99.90;;;;;;4995680;28;20207;-91
2023/01/13 01:22:39;;;;;;;0.37;0.37;;;10.00;99.90;;;;;;5006743;28;20240;-91
2023/01/13 01:25:07;;;;;;;1.17;0.87;;;9.90;99.90;;;;;;5001187;28;20692;-91
2023/01/13 01:30:39;;;;;;;2.77;0.50;;;9.90;99.90;;;;;;4987035;28;20757;-91
2023/01/13 01:33:06;;;;;;;0.33;0.23;;;10.00;99.90;;;;;;4986516;28;20232;-91
2023/01/13 01:35:34;;;;;;;0.47;0.47;;;9.90;99.90;;;;;;4985142;28;20286;-92
2023/01/13 01:38:01;;;;;;;0.33;0.30;;;10.00;99.90;;;;;;4995507;28;20297;-91
2023/01/13 01:40:28;;;;;;;0.27;0.27;;;10.00;99.90;;;;;;4995344;28;20698;-91
2023/01/13 01:45:44;;;;;;;0.43;0.40;;;10.30;99.90;;;;;;4952092;28;20198;-91
2023/01/13 01:48:11;;;;;;;0.70;0.50;;;10.30;99.90;;;;;;4994415;28;20221;-90
2023/01/13 01:50:40;;;;;;;0.40;0.40;;;10.20;99.90;;;;;;4995308;28;20197;-91
2023/01/13 01:53:11;;;;;;;2.00;0.73;;;10.40;99.90;;;;;;4994620;28;20207;-90
2023/01/13 01:55:39;;;;;;;0.50;0.50;;;10.60;99.90;;;;;;4995404;28;20217;-90
2023/01/13 01:58:10;;;;;;;0.60;0.60;;;10.50;99.90;;;;;;4994888;28;20224;-90
2023/01/13 02:00:37;;;;;;;1.30;0.30;;;10.60;99.90;;;;;;4994727;28;20287;-90
2023/01/13 02:03:06;;;;;;;1.23;0.40;;;10.70;99.90;;;;;;4994938;28;20229;-89
2023/01/13 02:05:33;;;;;;;1.20;0.30;;;10.60;99.90;;;;;;4995667;28;20204;-90
2023/01/13 02:08:02;;;;;;;2.53;0.73;;;10.40;99.90;;;;;;4995399;28;20213;-93
2023/01/13 02:10:31;;;;;;;1.57;0.50;;;10.40;99.90;;;;;;4995560;28;20224;-90
2023/01/13 02:12:59;;;;;;;0.93;0.40;;;10.30;99.90;;;;;;4996465;28;20201;-90
2023/01/13 02:15:35;;;;;;;1.43;0.67;;;10.20;99.90;;;;;;4985009;28;20225;-91
2023/01/13 02:18:36;;;;;;;1.33;0.77;;;10.20;99.90;;;;;;4991919;28;20690;-91
2023/01/13 02:21:27;;;;;;;1.47;0.50;;;10.10;99.90;;;;;;4989833;28;20662;-91
2023/01/13 02:27:41;;;;;;;1.80;0.37;;;10.10;99.90;;;;;;4994139;28;20224;-91
2023/01/13 02:34:15;;;;;;;0.80;0.50;;;10.10;99.90;;;;;;4994207;28;20586;-91
2023/01/13 02:36:51;;;;;;;3.13;0.70;;;10.00;99.90;;;;;;4962677;28;20209;-90
2023/01/13 02:39:25;;;;;;;2.87;0.80;;;10.10;99.90;;;;;;4983098;28;20584;-91
2023/01/13 02:44:44;;;;;;;2.30;0.40;;;10.10;99.90;;;;;;4993469;28;20283;-90
2023/01/13 02:47:18;;;;;;;5.23;0.67;;;10.00;99.90;;;;;;4994332;28;20656;-91
2023/01/13 02:49:49;;;;;;;4.27;1.07;;;10.00;99.90;;;;;;4994395;28;20275;-90
2023/01/13 02:52:22;;;;;;;2.37;0.90;;;10.00;99.90;;;;;;4993855;28;20201;-90
2023/01/13 02:54:54;;;;;;;4.20;0.80;;;10.00;99.90;;;;;;4997349;28;20204;-92
2023/01/13 02:57:21;;;;;;;3.23;0.77;;;10.00;99.90;;;;;;5006239;28;20195;-93
2023/01/13 02:59:48;;;;;;;3.57;0.70;;;10.00;99.90;;;;;;5018421;28;20196;-94
2023/01/13 03:02:19;;;;;;;2.57;0.70;;;10.00;99.90;;;;;;5009147;28;20304;-90
2023/01/13 03:04:53;;;;;;;4.13;0.93;;;10.10;99.90;;;;;;4993986;28;20609;-90
2023/01/13 03:07:52;;;;;;;2.87;0.97;;;9.90;99.90;;;;;;4993629;28;20594;-92
2023/01/13 03:10:36;;;;;;;3.60;1.03;;;9.90;99.90;;;;;;4994048;28;20209;-90
2023/01/13 03:13:14;;;;;;;2.50;0.90;;;9.90;99.90;;;;;;4992567;28;20197;-91
2023/01/13 03:15:48;;;;;;;3.07;1.00;;;9.90;99.90;;;;;;4993841;28;20200;-91
2023/01/13 03:18:32;;;;;;;4.67;1.03;;;9.90;99.90;;;;;;4993949;28;20233;-91
2023/01/13 03:21:07;;;;;;;2.53;0.93;;;9.80;99.90;;;;;;4993639;28;20213;-90
2023/01/13 03:23:41;;;;;;;1.60;0.77;;;9.80;99.90;;;;;;4978706;28;20220;-92
2023/01/13 03:26:12;;;;;;;2.90;0.70;;;9.80;99.90;;;;;;4993323;28;20789;-91
2023/01/13 03:28:43;;;;;;;2.40;1.23;;;9.80;99.90;;;;;;4993440;28;20227;-91
2023/01/13 03:31:13;;;;;;;2.33;1.40;;;9.80;99.90;;;;;;4993382;28;20220;-91
2023/01/13 03:33:47;;;;;;;2.57;1.50;;;9.80;99.90;;;;;;4991442;28;20235;-90
2023/01/13 03:36:17;;;;;;;3.83;1.20;;;9.80;99.90;;;;;;4993305;28;20579;-91
2023/01/13 03:38:51;;;;;;;4.00;1.63;;;9.80;99.90;;;;;;4992689;28;20235;-91
2023/01/13 03:41:23;;;;;;;2.97;1.27;;;9.80;99.90;;;;;;4974316;28;20213;-91
2023/01/13 03:46:46;;;;;;;3.30;1.50;;;9.80;99.90;;;;;;4984750;28;20203;-90
2023/01/13 03:49:19;;;;;;;3.70;1.20;;;9.70;99.90;;;;;;4993903;28;20233;-90
2023/01/13 03:51:49;;;;;;;2.93;1.60;;;9.80;99.90;;;;;;4993009;28;20578;-90
2023/01/13 03:54:18;;;;;;;5.37;1.57;;;9.90;99.90;;;;;;4993282;28;20575;-90
2023/01/13 03:56:49;;;;;;;4.90;1.63;;;9.80;99.90;;;;;;4976265;28;20213;-89
2023/01/13 03:59:19;;;;;;;8.03;2.20;;;9.70;99.90;;;;;;4993258;28;20698;-89
2023/01/13 04:01:52;;;;;;;5.40;2.10;;;9.80;99.90;;;;;;4993673;28;20204;-90
2023/01/13 04:04:25;;;;;;;6.63;2.07;;;9.80;99.90;;;;;;4993617;28;20745;-90
2023/01/13 04:06:58;;;;;;;4.07;1.57;;;9.80;99.90;;;;;;4993695;28;20288;-90
2023/01/13 04:09:33;;;;;;;6.47;1.90;;;9.80;99.90;;;;;;4993287;28;20286;-90
2023/01/13 04:12:03;;;;;;;4.33;1.90;;;9.70;99.90;;;;;;4977674;28;20201;-89
2023/01/13 04:14:31;;;;;;;5.60;2.10;;;9.90;99.90;;;;;;4992737;28;20203;-90
2023/01/13 04:16:58;;;;;;;5.27;2.17;;;9.70;99.90;;;;;;4993071;28;20219;-90
2023/01/13 04:19:26;;;;;;;3.80;1.83;;;9.70;99.90;;;;;;4992849;28;20589;-90
2023/01/13 04:21:53;;;;;;;6.70;2.07;;;9.70;99.90;;;;;;4992334;28;20580;-90
2023/01/13 04:24:19;;;;;;;5.83;1.87;;;9.60;99.90;;;;;;4992677;28;20227;-90
2023/01/13 04:26:46;;;;;;;5.53;1.93;;;9.60;99.90;;;;;;4992538;28;20205;-89
2023/01/13 04:29:13;;;;;;;6.63;1.83;;;9.50;99.90;;;;;;4993968;28;20708;-90
2023/01/13 04:31:40;;;;;;;8.10;2.20;;;9.50;99.90;;;;;;4993140;28;20213;-90
2023/01/13 04:34:07;;;;;;;4.33;1.80;;;9.50;99.90;;;;;;4992879;28;20207;-90
2023/01/13 04:36:35;;;;;;;4.53;1.83;;;9.50;99.90;;;;;;4992759;28;20219;-90
2023/01/13 04:39:02;;;;;;;10.27;3.67;;;9.40;99.90;;;;;;4993335;28;20471;-90
2023/01/13 04:41:56;;;;;;;5.63;1.80;;;9.40;99.90;;;;;;4993051;28;20588;-89
2023/01/13 04:44:17;;;;;;;10.37;3.00;;;9.40;99.90;;;;;;4993874;28;20220;-90
2023/01/13 04:46:44;;;;;;;5.43;1.70;;;9.40;99.90;;;;;;4996757;28;20193;-90
2023/01/13 04:49:10;;;;;;;5.83;2.17;;;9.40;99.90;;;;;;4997141;28;20244;-90
2023/01/13 04:51:39;;;;;;;4.73;1.80;;;9.30;99.90;;;;;;4996706;28;20295;-89
2023/01/13 04:54:06;;;;;;;9.70;2.20;;;9.40;99.90;;;;;;4996693;28;20211;-89
2023/01/13 04:56:32;;;;;;;6.97;1.93;;;9.50;99.90;;;;;;4996519;28;20268;-90
2023/01/13 04:58:59;;;;;;;6.57;2.20;;;9.40;99.90;;;;;;4996630;28;20291;-91
2023/01/13 05:01:26;;;;;;;10.10;2.20;;;9.30;99.90;;;;;;4996800;28;20259;-90
2023/01/13 05:03:53;;;;;;;7.10;3.00;;;9.30;99.90;;;;;;4996356;28;20225;-89
2023/01/13 05:06:19;;;;;;;11.47;2.80;;;9.30;99.90;;;;;;4996409;28;20201;-90
2023/01/13 05:08:49;;;;;;;8.63;2.67;;;9.30;99.90;;;;;;4996144;28;20268;-90
2023/01/13 05:17:00;;;;;;;8.27;2.70;;;9.30;99.90;;;;;;4996358;28;20781;-89
2023/01/13 05:19:28;;;;;;;6.37;2.60;;;9.20;99.90;;;;;;4996333;28;20229;-89
2023/01/13 05:27:25;;;;;;;10.27;2.40;;;9.10;99.90;;;;;;4997533;28;20216;-90
2023/01/13 05:29:52;;;;;;;7.97;2.60;;;9.00;99.90;;;;;;5004035;28;20236;-90
2023/01/13 05:32:19;;;;;;;13.50;2.90;;;9.10;99.90;;;;;;4985289;28;20228;-90
2023/01/13 05:34:46;;;;;;;9.13;2.07;;;9.00;99.90;;;;;;4994642;28;20201;-90
2023/01/13 05:37:13;;;;;;;9.67;2.50;;;9.10;99.90;;;;;;4994660;28;20208;-89
2023/01/13 05:45:10;;;;;;;9.93;2.30;;;9.30;99.90;;;;;;4974418;28;20233;-90
2023/01/13 05:47:37;;;;;;;14.37;3.53;;;9.00;99.90;;;;;;4995190;28;20213;-90
2023/01/13 05:50:05;;;;;;;11.23;2.53;;;8.90;99.90;;;;;;4995501;28;20225;-90
2023/01/13 05:52:32;;;;;;;12.37;2.90;;;9.00;99.90;;;;;;4995147;28;20221;-89
2023/01/13 05:55:00;;;;;;;8.13;2.50;;;9.00;99.90;;;;;;4995060;28;20674;-89
2023/01/13 05:57:27;;;;;;;12.40;2.60;;;8.80;99.90;;;;;;4994805;28;20579;-88
2023/01/13 05:59:53;;;;;;;12.00;2.70;;;8.80;99.90;;;;;;4995110;28;20611;-89
2023/01/13 06:02:20;;;;;;;15.07;3.90;;;8.80;99.90;;;;;;4994819;28;20221;-89
2023/01/13 06:04:47;;;;;;;9.03;3.00;;;8.80;99.90;;;;;;4994529;28;20232;-90
2023/01/13 06:07:14;;;;;;;19.23;3.20;;;8.70;99.90;;;;;;4991784;28;20214;-89
2023/01/13 06:09:40;;;;;;;14.73;3.67;;;8.50;99.90;;;;;;4995222;28;20232;-88
2023/01/13 06:12:10;;;;;;;14.47;3.27;;;8.60;99.90;;;;;;4994035;28;20293;-89
2023/01/13 06:14:39;;;;;;;8.63;2.47;;;8.60;99.90;;;;;;4994594;28;20194;-89
2023/01/13 06:17:07;;;;;;;10.07;2.53;;;8.60;99.90;;;;;;5006858;28;20268;-89
2023/01/13 06:19:34;;;;;;;7.77;1.93;;;8.70;99.90;;;;;;4997485;28;20232;-89
2023/01/13 06:22:07;;;;;;;7.10;1.70;;;8.70;99.90;;;;;;4994271;28;20217;-89
2023/01/13 06:24:35;;;;;;;10.20;1.70;;;8.80;99.90;;;;;;5005141;28;20225;-88
2023/01/13 06:27:02;;;;;;;6.03;1.30;;;8.90;99.90;;;;;;5006556;28;20213;-89
2023/01/13 06:29:30;;;;;;;5.33;1.30;;;8.90;99.90;;;;;;5006766;28;20234;-89
2023/01/13 06:31:57;;;;;;;8.73;3.00;;;9.00;99.90;;;;;;5003380;28;20208;-89
2023/01/13 06:34:24;;;;;;;8.63;1.83;;;9.00;99.90;;;;;;4994766;28;20216;-88
2023/01/13 06:36:53;;;;;;;3.13;1.10;;;9.00;99.90;;;;;;4995833;28;20208;-88
2023/01/13 06:39:24;;;;;;;4.33;1.43;;;9.00;99.90;;;;;;4989417;28;20233;-87
2023/01/13 06:44:39;;;;;;;8.60;1.60;;;9.00;99.90;;;;;;4991086;28;20228;-87
2023/01/13 06:47:07;;;;;;;7.47;1.60;;;8.90;99.90;;;;;;4994079;28;20220;-89
2023/01/13 06:49:34;;;;;;;9.23;2.90;;;8.90;99.90;;;;;;4995042;28;20222;-87
2023/01/13 06:52:00;;;;;;;6.53;2.00;;;9.00;99.90;;;;;;4989979;28;20606;-88
2023/01/13 06:54:27;;;;;;;7.53;2.37;;;9.00;99.90;;;;;;4998590;28;20208;-89
2023/01/13 06:56:54;;;;;;;4.23;1.43;;;8.90;99.90;;;;;;4992820;28;20553;-88
2023/01/13 06:59:21;;;;;;;10.50;1.93;;;8.80;99.90;;;;;;4997341;28;20714;-88
2023/01/13 07:01:49;;;;;;;14.97;2.47;;;8.80;99.90;;;;;;4989052;28;20312;-88
2023/01/13 07:04:17;;;;;;;10.13;1.93;;;8.80;99.90;;;;;;4979579;28;20232;-88
2023/01/13 07:06:44;;;;;;;10.03;1.80;;;8.80;99.90;;;;;;4994871;28;20209;-88
2023/01/13 07:09:11;;;;;;;7.67;1.67;;;8.90;99.90;;;;;;4992638;28;20232;-88
2023/01/13 07:11:38;;;;;;;5.43;1.70;;;8.80;99.90;;;;;;4992752;28;20207;-88
2023/01/13 07:16:45;;;;;;;10.37;1.83;;;8.80;99.90;;;;;;4978872;28;20223;-88
2023/01/13 07:19:14;;;;;;;7.73;1.60;;;9.00;99.90;;;;;;4994380;28;20228;-88
2023/01/13 07:21:42;;;;;;;8.10;1.67;;;8.90;99.90;;;;;;5002154;28;20202;-85
2023/01/13 07:24:09;;;;;;;10.17;1.90;;;8.90;99.90;;;;;;4994846;28;20276;-89
2023/01/13 07:26:37;;;;;;;10.53;1.33;;;8.80;99.90;;;;;;4994687;28;20203;-88
2023/01/13 07:29:03;;;;;;;10.43;1.90;;;8.70;99.90;;;;;;4992809;28;20295;-87
2023/01/13 07:31:30;;;;;;;9.07;2.03;;;8.70;99.90;;;;;;4991791;28;20590;-87
2023/01/13 07:33:57;;;;;;;7.33;1.73;;;8.70;99.90;;;;;;4993646;28;20208;-89
2023/01/13 07:36:25;;;;;;;4.53;1.40;;;8.70;99.90;;;;;;4997596;28;20205;-87
2023/01/13 07:38:52;;;;;;;6.50;1.63;;;8.60;99.90;;;;;;4994667;28;20228;-86
2023/01/13 07:44:05;;;;;;;9.33;1.60;;;8.80;99.90;;;;;;4990763;28;20231;-87
2023/01/13 07:46:32;;;;;;;12.57;1.90;;;8.70;99.90;;;;;;4995713;28;20211;-86
2023/01/13 07:48:58;;;;;;;6.13;2.03;;;8.70;99.90;;;;;;4991740;28;20725;-87
2023/01/13 07:51:27;;;;;;;6.67;1.70;;;8.70;99.90;;;;;;4995382;28;20287;-87
2023/01/13 07:53:54;;;;;;;8.63;1.30;;;8.80;99.90;;;;;;4994866;28;20207;-87
2023/01/13 07:56:20;;;;;;;5.43;1.20;;;8.70;99.90;;;;;;4986589;28;20218;-87
2023/01/13 07:58:49;;;;;;;7.80;1.83;;;8.80;99.90;;;;;;4993271;28;20220;-87
2023/01/13 08:01:17;;;;;;;6.17;1.40;;;8.90;99.90;;;;;;4989657;28;20206;-87
2023/01/13 08:03:44;;;;;;;10.17;1.90;;;8.80;99.90;;;;;;4998388;28;20216;-87
2023/01/13 08:06:12;;;;;;;7.80;1.80;;;8.90;99.90;;;;;;4988753;28;20219;-87
2023/01/13 08:08:40;;;;;;;9.00;1.57;;;8.90;99.90;;;;;;4994891;28;20249;-87
2023/01/13 08:11:08;;;;;;;7.90;1.70;;;8.90;99.90;;;;;;4990008;28;20208;-87
2023/01/13 08:13:36;;;;;;;6.00;1.90;;;8.90;99.90;;;;;;4987745;28;20227;-88
2023/01/13 08:16:04;;;;;;;7.30;1.83;;;8.90;99.90;;;;;;4995301;28;20197;-87
2023/01/13 08:18:33;;;;;;;6.30;1.70;;;9.00;99.90;;;;;;4988443;28;20959;-87
2023/01/13 08:21:02;;;;;;;9.63;1.87;;;9.10;99.90;;;;;;4992128;28;20211;-88
2023/01/13 08:23:29;;;;;;;11.30;2.77;;;9.00;99.90;;;;;;4985295;28;20202;-87
2023/01/13 08:26:01;;;;;;;9.10;1.90;;;9.00;99.90;;;;;;4995170;28;20228;-87
2023/01/13 08:28:28;;;;;;;6.87;2.07;;;9.10;99.90;;;;;;4989168;28;20229;-87
2023/01/13 08:30:59;;;;;;;11.20;2.30;;;9.10;99.90;;;;;;4992261;28;20287;-86
2023/01/13 08:33:26;;;;;;;10.23;2.03;;;9.00;99.90;;;;;;4989778;28;20237;-87
2023/01/13 08:35:53;;;;;;;8.67;1.83;;;9.10;99.90;;;;;;4991869;28;20224;-87
2023/01/13 08:38:20;;;;;;;8.13;1.67;;;9.10;99.90;;;;;;4988624;28;20239;-87
2023/01/13 08:40:47;;;;;;;8.20;1.93;;;9.10;99.90;;;;;;4994127;28;20200;-87
2023/01/13 08:43:15;;;;;;;6.33;1.70;;;9.20;99.90;;;;;;4993233;28;20229;-86
2023/01/13 08:45:42;;;;;;;8.13;1.83;;;9.10;99.90;;;;;;4980461;28;20398;-87
2023/01/13 08:48:09;;;;;;;9.93;2.20;;;9.00;99.90;;;;;;4992664;28;20678;-87
2023/01/13 08:50:36;;;;;;;6.70;1.60;;;9.10;99.90;;;;;;4994634;28;20211;-88
2023/01/13 08:53:03;;;;;;;11.10;2.60;;;9.10;99.90;;;;;;4990997;28;20209;-87
2023/01/13 08:55:29;;;;;;;10.57;2.60;;;9.20;99.90;;;;;;4990700;28;20212;-88
2023/01/13 08:57:56;;;;;;;11.90;3.17;;;9.10;99.90;;;;;;5000946;28;20205;-88
2023/01/13 09:00:24;;;;;;;11.00;1.93;;;9.10;99.90;;;;;;4992311;28;20224;-88
2023/01/13 09:02:51;;;;;;;8.10;2.20;;;9.10;99.90;;;;;;4984735;28;20205;-89
2023/01/13 09:05:18;;;;;;;10.07;2.20;;;9.10;99.90;;;;;;4992685;28;20224;-88
2023/01/13 09:07:45;;;;;;;10.20;2.47;;;9.10;99.90;;;;;;4988754;28;20201;-87
2023/01/13 09:10:12;;;;;;;7.90;2.10;;;9.10;99.90;;;;;;4982273;28;20208;-88
2023/01/13 09:15:24;;;;;;;8.10;2.13;;;9.20;99.90;;;;;;4991644;28;20216;-88
2023/01/13 09:17:51;;;;;;;5.43;1.67;;;9.20;99.90;;;;;;4987603;28;20205;-88
2023/01/13 09:20:18;;;;;;;11.07;2.23;;;9.30;99.90;;;;;;4976037;28;20226;-88
2023/01/13 09:22:46;;;;;;;6.47;2.00;;;9.30;99.90;;;;;;4995863;28;20702;-88
2023/01/13 09:25:13;;;;;;;7.57;2.23;;;9.20;99.90;;;;;;4983061;28;20236;-88
2023/01/13 09:27:40;;;;;;;10.50;2.10;;;9.20;99.90;;;;;;4990825;28;20692;-88
2023/01/13 09:30:08;;;;;;;8.33;2.50;;;9.20;99.90;;;;;;4992698;28;20221;-87
2023/01/13 09:32:37;;;;;;;10.50;2.60;;;9.30;99.90;;;;;;4992885;28;20217;-89
2023/01/13 09:35:04;;;;;;;8.23;2.13;;;9.60;99.90;;;;;;4994177;28;20824;-89
2023/01/13 09:37:33;;;;;;;8.10;2.33;;;9.80;99.90;;;;;;4994745;28;20204;-88
2023/01/13 09:40:01;;;;;;;9.37;2.70;;;9.70;99.90;;;;;;4993804;28;20228;-88
2023/01/13 09:45:29;;;;;;;12.53;2.67;;;9.30;99.90;;;;;;4993691;28;20334;-88
2023/01/13 09:48:04;;;;;;;10.63;2.37;;;9.30;99.90;;;;;;4991678;28;20658;-89
2023/01/13 09:50:46;;;;;;;10.63;2.83;;;9.40;99.90;;;;;;4999860;28;20211;-87
2023/01/13 09:53:22;;;;;;;9.80;2.90;;;9.50;99.90;;;;;;5000144;28;20269;-90
2023/01/13 09:55:49;;;;;;;9.67;2.53;;;9.40;99.90;;;;;;4994145;28;20596;-88
2023/01/13 09:58:18;;;;;;;10.80;2.47;;;9.50;99.90;;;;;;4993772;28;20287;-87
2023/01/13 10:00:51;;;;;;;7.07;2.13;;;9.50;99.90;;;;;;4994137;28;20602;-88
2023/01/13 10:03:25;;;;;;;4.63;1.50;;;9.50;99.90;;;;;;4993854;28;20215;-90
2023/01/13 10:06:03;;;;;;;9.33;1.90;;;9.50;99.90;;;;;;4993201;28;20234;-89
2023/01/13 10:08:33;;;;;;;11.83;2.10;;;9.50;99.90;;;;;;4990970;28;20701;-90
2023/01/13 10:13:12;;;;;;;9.93;1.60;;;9.50;99.90;;;;;;4986176;28;20205;-89
2023/01/13 10:13:54;;;;;;;7.93;1.90;;;9.50;99.90;;;;;;4992720;28;20205;-89
2023/01/13 10:16:30;;;;;;;11.07;2.73;;;9.50;99.90;;;;;;4993624;28;20208;-88
2023/01/13 10:19:05;;;;;;;8.00;1.87;;;9.50;99.90;;;;;;4993906;28;20233;-87
2023/01/13 10:21:57;;;;;;;7.30;2.37;;;9.50;99.90;;;;;;4993299;28;20336;-88
2023/01/13 10:24:33;;;;;;;7.63;2.10;;;9.50;99.90;;;;;;4992018;28;20216;-88
2023/01/13 10:27:03;;;;;;;6.13;2.03;;;9.50;99.90;;;;;;4992687;28;20689;-90
2023/01/13 10:29:33;;;;;;;8.27;2.07;;;9.40;99.90;;;;;;4993347;28;20686;-88
2023/01/13 10:32:00;;;;;;;6.67;1.83;;;9.50;99.90;;;;;;4992266;28;20216;-87
2023/01/13 10:34:29;;;;;;;8.33;1.90;;;9.50;99.90;;;;;;4993036;28;20220;-89
2023/01/13 10:37:05;;;;;;;7.60;2.50;;;9.50;99.90;;;;;;4992805;28;20223;-89
2023/01/13 10:39:40;;;;;;;7.97;1.90;;;9.50;99.90;;;;;;4992903;28;20788;-86
2023/01/13 10:42:13;;;;;;;9.23;2.20;;;9.50;99.90;;;;;;4992203;28;20212;-89
2023/01/13 10:44:48;;;;;;;6.93;1.80;;;9.50;99.90;;;;;;4992434;28;20224;-87
2023/01/13 10:47:22;;;;;;;7.60;2.37;;;9.50;99.90;;;;;;4992760;28;20259;-88
2023/01/13 10:50:04;;;;;;;6.00;1.90;;;9.50;99.90;;;;;;4988268;28;20773;-88
2023/01/13 10:52:32;;;;;;;9.10;2.87;;;9.50;99.90;;;;;;4989769;28;20251;-88
2023/01/13 10:54:59;;;;;;;9.90;2.23;;;9.50;99.90;;;;;;4992104;28;20217;-88
2023/01/13 10:57:27;;;;;;;11.33;2.47;;;9.50;99.90;;;;;;4994993;28;20700;-90
2023/01/13 10:59:55;;;;;;;11.27;2.50;;;9.40;99.90;;;;;;4992057;28;20247;-88
2023/01/13 11:02:28;;;;;;;6.93;2.43;;;9.40;99.90;;;;;;4992283;28;20205;-88
2023/01/13 11:05:14;;;;;;;9.03;2.27;;;9.50;99.90;;;;;;4992284;28;20323;-88
2023/01/13 11:07:49;;;;;;;9.23;2.50;;;9.40;99.90;;;;;;4990934;28;20240;-88
2023/01/13 11:10:22;;;;;;;8.33;2.40;;;9.40;99.90;;;;;;4997877;28;20344;-88
2023/01/13 11:12:58;;;;;;;6.63;1.80;;;9.40;99.90;;;;;;4992629;28;20218;-88
2023/01/13 11:15:33;;;;;;;11.27;2.10;;;9.50;99.90;;;;;;4991586;28;20574;-87
2023/01/13 11:18:05;;;;;;;6.10;2.00;;;9.50;99.90;;;;;;4993326;28;20204;-88
2023/01/13 11:20:38;;;;;;;8.33;2.57;;;9.40;99.90;;;;;;4992106;28;20204;-88
2023/01/13 11:23:14;;;;;;;9.00;2.67;;;9.30;99.90;;;;;;4973278;28;20219;-88
2023/01/13 11:25:44;;;;;;;7.03;2.03;;;9.40;99.90;;;;;;4977003;28;20724;-88
2023/01/13 11:28:31;;;;;;;12.47;2.13;;;9.40;99.90;;;;;;4991195;28;20225;-88
2023/01/13 11:31:05;;;;;;;10.20;2.10;;;9.40;99.90;;;;;;4993053;28;20213;-88
2023/01/13 11:33:38;;;;;;;11.80;3.43;;;9.40;99.90;;;;;;4991259;28;20217;-88
2023/01/13 11:36:11;;;;;;;10.63;2.57;;;9.40;99.90;;;;;;4991236;28;20201;-87
2023/01/13 11:38:46;;;;;;;9.67;2.17;;;9.40;99.90;;;;;;4991462;28;20225;-89
2023/01/13 11:41:22;;;;;;;7.30;1.93;;;9.40;99.90;;;;;;4989659;28;20707;-88
2023/01/13 11:43:54;;;;;;;11.73;2.40;;;9.50;99.90;;;;;;4990420;28;20205;-88
2023/01/13 11:46:25;;;;;;;6.20;2.27;;;9.40;99.90;;;;;;4991341;28;20649;-88
2023/01/13 11:48:55;;;;;;;12.60;2.53;;;9.40;99.90;;;;;;4992710;28;20307;-88
2023/01/13 11:51:33;;;;;;;7.67;2.33;;;9.40;99.90;;;;;;4991923;28;20633;-87
2023/01/13 11:54:37;;;;;;;12.17;2.00;;;9.40;99.90;;;;;;4990772;28;20212;-87
2023/01/13 11:57:25;;;;;;;10.90;2.33;;;9.40;99.90;;;;;;4981639;28;20533;-87
2023/01/13 12:00:13;;;;;;;11.07;2.30;;;9.40;99.90;;;;;;4991218;28;20231;-87
2023/01/13 12:02:56;;;;;;;8.77;2.40;;;9.50;99.90;;;;;;4991468;28;20205;-88
2023/01/13 12:05:32;;;;;;;12.23;2.90;;;9.50;99.90;;;;;;4990519;28;20228;-87
2023/01/13 12:08:12;;;;;;;7.80;2.23;;;9.50;99.90;;;;;;4991180;28;20228;-89
2023/01/13 12:10:53;;;;;;;7.00;2.10;;;9.50;99.90;;;;;;4991007;28;20220;-90
2023/01/13 12:13:32;;;;;;;15.57;2.87;;;9.50;99.90;;;;;;4990938;28;20328;-89
2023/01/13 12:16:14;;;;;;;12.33;3.60;;;9.50;99.90;;;;;;4990794;28;20628;-90
2023/01/13 12:19:09;;;;;;;10.00;2.13;;;9.50;99.90;;;;;;4991262;28;20641;-87
2023/01/13 12:21:56;;;;;;;8.57;1.80;;;9.50;99.90;;;;;;4995397;28;20226;-91
2023/01/13 12:24:42;;;;;;;8.03;2.43;;;9.60;99.90;;;;;;4994131;28;20640;-90
2023/01/13 12:27:16;;;;;;;11.17;3.23;;;9.60;99.90;;;;;;4993561;28;20227;-89
2023/01/13 12:29:46;;;;;;;9.00;2.87;;;9.70;99.90;;;;;;4994834;28;20228;-87
2023/01/13 12:32:17;;;;;;;8.50;2.07;;;9.50;99.90;;;;;;4993373;28;20283;-89
2023/01/13 12:35:07;;;;;;;12.60;2.43;;;9.50;99.90;;;;;;4992954;28;20284;-88
2023/01/13 12:37:41;;;;;;;9.57;2.50;;;9.60;99.90;;;;;;4993710;28;20225;-89
2023/01/13 12:40:37;;;;;;;9.67;2.30;;;9.50;99.90;;;;;;4993616;28;20228;-90
2023/01/13 12:46:32;;;;;;;6.70;2.27;;;9.50;99.90;;;;;;4994509;28;20224;-90
2023/01/13 12:52:30;;;;;;;9.30;2.63;;;9.50;99.90;;;;;;4995184;28;20274;-93
2023/01/13 12:55:17;;;;;;;10.33;2.90;;;9.20;99.90;;;;;;4996463;28;20216;-90
2023/01/13 12:58:02;;;;;;;12.73;2.57;;;9.10;99.90;;;;;;4997337;28;20213;-91
2023/01/13 13:03:40;;;;;;;10.83;2.80;;;9.20;99.90;;;;;;4995973;28;20209;-92
2023/01/13 13:06:13;;;;;;;10.67;2.30;;;9.10;99.90;;;;;;5000254;28;20307;-92
2023/01/13 13:08:50;;;;;;;12.07;2.60;;;9.10;99.90;;;;;;5002540;28;20275;-89
2023/01/13 13:15:10;;;;;;;12.83;2.70;;;9.10;99.90;;;;;;5017037;28;20291;-87
2023/01/13 13:17:43;;;;;;;9.23;2.40;;;8.90;99.90;;;;;;5009285;28;20227;-92
2023/01/13 13:20:49;;;;;;;9.97;3.07;;;8.80;99.90;;;;;;5016899;28;20205;-91
2023/01/13 13:23:50;;;;;;;13.10;3.47;;;8.80;99.90;;;;;;4986873;28;20212;-91
2023/01/13 13:26:38;;;;;;;11.53;3.23;;;8.90;99.90;;;;;;4999659;28;20279;-92
2023/01/13 13:29:22;;;;;;;10.67;2.90;;;8.90;99.90;;;;;;5010286;28;20236;-90
2023/01/13 13:32:16;;;;;;;13.83;3.73;;;9.00;99.90;;;;;;4998076;28;20214;-91
2023/01/13 13:34:55;;;;;;;8.10;3.23;;;9.00;99.90;;;;;;4982739;28;20212;-89
2023/01/13 13:46:45;;;;;;;11.90;3.40;;;9.00;99.90;;;;;;4992691;28;20682;-89
2023/01/13 13:48:50;;;;;;;13.37;3.30;;;8.90;99.90;;;;;;5002391;28;20232;-89
2023/01/13 13:51:27;;;;;;;15.87;3.63;;;8.90;99.90;;;;;;5000228;28;20637;-89
2023/01/13 13:53:54;;;;;;;17.27;3.53;;;8.90;99.90;;;;;;5001042;28;20209;-89
2023/01/13 13:56:24;;;;;;;14.07;3.10;;;8.80;99.90;;;;;;4992727;28;20205;-90
2023/01/13 13:58:52;;;;;;;11.40;3.73;;;8.70;99.90;;;;;;5005986;28;20646;-91
2023/01/13 14:01:24;;;;;;;8.47;2.43;;;8.70;99.90;;;;;;4998953;28;20235;-91
2023/01/13 14:04:04;;;;;;;9.53;3.20;;;8.60;99.90;;;;;;4997619;28;20211;-90
2023/01/13 14:06:33;;;;;;;4.37;2.27;;;8.60;99.90;;;;;;4999237;28;20251;-90
2023/01/13 14:09:02;;;;;;;14.83;3.27;;;8.70;99.90;;;;;;5003471;28;20232;-90
2023/01/13 14:11:31;;;;;;;14.23;2.73;;;8.60;99.90;;;;;;4993608;28;20259;-88
2023/01/13 14:14:02;;;;;;;10.10;3.10;;;8.60;99.90;;;;;;5000734;28;20299;-89
2023/01/13 14:16:29;;;;;;;12.53;2.70;;;8.50;99.90;;;;;;5005751;28;20584;-90
2023/01/13 14:18:56;;;;;;;6.50;2.60;;;8.60;99.90;;;;;;4998111;28;20252;-90
2023/01/13 14:21:26;;;;;;;7.20;2.30;;;8.60;99.90;;;;;;5005493;28;20214;-89
2023/01/13 14:23:57;;;;;;;8.37;2.90;;;8.50;99.90;;;;;;5005259;28;20487;-89
2023/01/13 14:26:27;;;;;;;7.30;2.50;;;8.50;99.90;;;;;;4988859;28;20778;-89
2023/01/13 14:28:55;;;;;;;8.10;2.40;;;8.50;99.90;;;;;;4995137;28;20321;-90
2023/01/13 14:31:22;;;;;;;8.27;2.40;;;8.60;99.90;;;;;;5002874;28;20743;-89